Flight Track Log - Related Links

Times and Time Zones

All times are in EDT time to prevent confusion due to time zone crossing. See the SKW2630 flight status page for this flight to view local times or setup timezone preferences in your user account.

Time Position Orientation Groundspeed Altitude Reporting Facility
EDT Latitude Longitude Course Direction KTS MPH feet Rate Location/Type
Wed 06:52:51 AM 38.1500 -78.4500 360° North 149 171 1,700  Level Potomac TRACON
Wed 06:53:51 AM 38.2000 -78.4500 360° North 189 217 4,000 2,359 Climbing Potomac TRACON
Wed 06:54:48 AM 38.2253 -78.5150 296° West 213 245 6,300 2,359 Climbing Washington Center
Wed 06:55:48 AM 38.2589 -78.5850 301° West 238 274 8,600 2,430 Climbing Washington Center
Wed 06:56:49 AM 38.2983 -78.6767 299° West 256 295 11,200 2,628 Climbing Washington Center
Wed 06:57:49 AM 38.3378 -78.7683 299° West 279 321 13,900 2,380 Climbing Washington Center
Wed 06:58:50 AM 38.3811 -78.8628 300° West 300 345 16,000 2,083 Climbing Washington Center
Wed 06:59:50 AM 38.4242 -78.9603 299° West 312 359 18,100 1,780 Climbing Washington Center
Wed 07:00:48 AM 38.4694 -79.0550 301° West 317 365 19,500 1,261 Climbing Washington Center
Wed 07:01:49 AM 38.5083 -79.1522 297° West 322 371 20,600 1,230 Climbing Washington Center
Wed 07:02:50 AM 38.5553 -79.2556 300° West 328 377 22,000 706 Climbing Washington Center
Wed 07:03:48 AM 38.6019 -79.3667 298° West 341 392 22,000 303 Level Washington Center
Wed 07:04:49 AM 38.6503 -79.4808 298° West 359 413 22,600 1,289 Climbing Washington Center
Wed 07:05:49 AM 38.7028 -79.6008 299° West 359 413 24,600 1,785 Climbing Washington Center
Wed 07:06:50 AM 38.7492 -79.7069 299° West 354 407 26,200 1,240 Climbing Washington Center
Wed 07:07:50 AM 38.7933 -79.8161 297° West 349 402 27,100 703 Climbing Washington Center
Wed 07:08:41 AM 38.8339 -79.9081 300° West 350 403 27,500 750 Climbing Indianapolis Center
Wed 07:09:42 AM 38.8742 -80.0022 299° West 352 405 28,500 1,033 Climbing Indianapolis Center
Wed 07:10:43 AM 38.9214 -80.1372 294° West 357 411 29,600 1,131 Climbing Indianapolis Center
Wed 07:11:44 AM 38.9372 -80.2586 280° West 351 404 30,800 1,131 Climbing Indianapolis Center
Wed 07:12:45 AM 38.9536 -80.3769 280° West 341 392 31,900 585 Climbing Indianapolis Center
Wed 07:13:47 AM 38.9706 -80.4950 280° West 338 389 32,000 49 Climbing Indianapolis Center
Wed 07:14:48 AM 38.9869 -80.6194 280° West 348 400 32,000  Level Indianapolis Center
Wed 07:15:49 AM 39.0058 -80.7461 281° West 357 411 32,000  Level Indianapolis Center
Wed 07:16:50 AM 39.0586 -80.8625 300° West 375 432 32,000  Level Indianapolis Center
Wed 07:17:51 AM 39.1147 -80.9789 302° West 380 437 32,000  Level Indianapolis Center
Wed 07:18:52 AM 39.1797 -81.1192 301° West 380 437 32,000  Level Indianapolis Center
Wed 07:19:53 AM 39.2344 -81.2356 301° West 381 438 32,000  Level Indianapolis Center
Wed 07:20:55 AM 39.2886 -81.3522 301° West 381 438 32,000  Level Indianapolis Center
Wed 07:21:56 AM 39.3433 -81.4669 302° West 380 437 32,000  Level Indianapolis Center
Wed 07:22:57 AM 39.3958 -81.5819 301° West 378 435 32,000  Level Indianapolis Center
Wed 07:23:58 AM 39.4497 -81.6967 301° West 376 433 32,000  Level Indianapolis Center
Wed 07:25:00 AM 39.5028 -81.8117 301° West 376 433 32,000  Level Indianapolis Center
Wed 07:26:01 AM 39.5556 -81.9261 301° West 375 432 32,000  Level Indianapolis Center
Wed 07:27:02 AM 39.6081 -82.0419 300° West 375 432 32,000  Level Indianapolis Center
Wed 07:28:03 AM 39.6694 -82.1728 301° West 375 432 32,000  Level Indianapolis Center
Wed 07:29:05 AM 39.7211 -82.2881 300° West 374 430 32,000  Level Indianapolis Center
Wed 07:30:06 AM 39.7739 -82.4028 301° West 374 430 32,000  Level Indianapolis Center
Wed 07:31:07 AM 39.8253 -82.5192 300° West 374 430 32,000  Level Indianapolis Center
Wed 07:32:09 AM 39.8786 -82.6353 301° West 374 430 32,000  Level Indianapolis Center
Wed 07:33:10 AM 39.9306 -82.7514 300° West 374 430 32,000  Level Indianapolis Center
Wed 07:34:12 AM 39.9939 -82.8925 300° West 374 430 32,000  Level Indianapolis Center
Wed 07:35:13 AM 40.0461 -83.0111 300° West 376 433 32,000  Level Indianapolis Center
Wed 07:36:14 AM 40.0994 -83.1306 300° West 380 437 32,000  Level Indianapolis Center
Wed 07:37:16 AM 40.1519 -83.2508 300° West 381 438 32,000  Level Indianapolis Center
Wed 07:38:17 AM 40.2050 -83.3706 300° West 382 440 32,000  Level Indianapolis Center
Wed 07:39:19 AM 40.2578 -83.4919 300° West 384 442 32,000  Level Indianapolis Center
Wed 07:40:20 AM 40.3111 -83.6131 300° West 384 442 32,000  Level Indianapolis Center
Wed 07:41:22 AM 40.3750 -83.7594 300° West 385 443 32,000  Level Indianapolis Center
Wed 07:42:23 AM 40.4272 -83.8806 300° West 385 443 32,000  Level Indianapolis Center
Wed 07:43:25 AM 40.4808 -84.0050 300° West 387 445 32,000  Level Indianapolis Center
Wed 07:44:26 AM 40.5339 -84.1275 300° West 387 445 32,000  Level Indianapolis Center
Wed 07:45:28 AM 40.5861 -84.2508 299° West 387 445 32,000  Level Indianapolis Center
Wed 07:46:29 AM 40.6389 -84.3756 299° West 388 447 32,000  Level Indianapolis Center
Wed 07:47:31 AM 40.6914 -84.5000 299° West 388 447 32,000  Level Indianapolis Center
Wed 07:48:32 AM 40.7556 -84.6489 300° West 390 449 32,000  Level Indianapolis Center
Wed 07:49:12 AM 40.7817 -84.7103 299° West 389 448 32,000  Level Chicago Center
Wed 07:50:14 AM 40.8336 -84.8378 298° West 389 448 32,000  Level Chicago Center
Wed 07:51:16 AM 40.8919 -84.9908 297° West 390 449 32,000  Level Chicago Center
Wed 07:52:17 AM 40.9411 -85.1181 297° West 390 449 32,000  Level Chicago Center
Wed 07:53:19 AM 40.9906 -85.2481 297° West 390 449 32,000  Level Chicago Center
Wed 07:54:21 AM 41.0386 -85.3753 297° West 390 449 32,000  Level Chicago Center
Wed 07:55:22 AM 41.0878 -85.5044 297° West 391 450 32,000 -439 Level Chicago Center
Wed 07:56:24 AM 41.1364 -85.6356 296° West 392 451 31,100 -1,839 Descending Chicago Center
Wed 07:57:26 AM 41.1875 -85.7739 296° West 412 474 28,200 -2,878 Descending Chicago Center
Wed 07:58:27 AM 41.2367 -85.9075 296° West 403 464 25,200 -1,561 Descending Chicago Center
Wed 07:59:29 AM 41.2872 -86.0614 294° West 376 433 25,000 -97 Descending Chicago Center
Wed 08:00:31 AM 41.3125 -86.2025 283° West 386 444 25,000  Level Chicago Center
Wed 08:01:32 AM 41.3383 -86.3461 284° West 395 455 25,000 -49 Level Chicago Center
Wed 08:02:34 AM 41.3636 -86.4831 284° West 384 442 24,900 -1,258 Descending Chicago Center
Wed 08:03:36 AM 41.3864 -86.6203 283° West 382 440 22,400 -2,585 Descending Chicago Center
Wed 08:04:37 AM 41.4222 -86.7633 289° West 363 418 19,600 -2,439 Descending Chicago Center
Wed 08:05:39 AM 41.4675 -86.8917 295° West 372 428 17,400 -2,371 Descending Chicago Center
Wed 08:06:41 AM 41.5067 -87.0094 294° West 351 404 14,700 -2,585 Descending Chicago Center
Wed 08:07:42 AM 41.5458 -87.1325 293° West 339 390 12,100 -1,463 Descending Chicago Center
Wed 08:08:44 AM 41.5831 -87.2408 295° West 325 374 11,700 -968 Descending Chicago Center
Wed 08:09:46 AM 41.6444 -87.3261 314° West 318 366 10,100 -829 Descending Chicago Center
Wed 08:10:47 AM 41.7017 -87.4231 308° West 314 361 10,000 -683 Descending Chicago Center
Wed 08:11:49 AM 41.7403 -87.5025 303° West 256 295 8,700 -1,452 Descending Chicago Center
Wed 08:12:51 AM 41.7800 -87.5844 303° West 247 284 7,000 -823 Descending Chicago Center
Wed 08:13:53 AM 41.8194 -87.6669 303° West 263 303 7,000  Level Chicago Center
Wed 08:14:54 AM 41.8547 -87.7389 303° West 231 266 7,000  Level Chicago Center
Wed 08:15:56 AM 41.8839 -87.8147 297° West 218 251 7,000  Level Chicago Center
Wed 08:16:58 AM 41.8833 -87.8892 269° West 202 232 7,000  Level Chicago Center
Wed 08:18:00 AM 41.8842 -87.9600 271° West 182 209 7,000 -145 Level Chicago Center
Wed 08:19:02 AM 41.8836 -88.0267 269° West 181 208 6,700 -677 Descending Chicago Center
Wed 08:20:04 AM 41.8836 -88.1025 270° West 187 215 5,600 -878 Descending Chicago Center
Wed 08:21:05 AM 41.8839 -88.1686 270° West 180 207 4,900 -683 Descending Chicago Center
Wed 08:22:07 AM 41.9194 -88.2011 326° Northwest 186 214 4,200 -435 Descending Chicago Center
Wed 08:23:09 AM 41.9606 -88.1569 39° Northeast 204 235 4,000 -532 Descending Chicago Center
Wed 08:24:11 AM 41.9650 -88.0894 85° East 186 214 3,100 -871 Descending Chicago Center
Wed 08:25:13 AM 41.9642 -88.0244 91° East 175 201 2,200 -919 Descending Chicago Center
Wed 08:26:15 AM 41.9647 -87.9661 89° East 148 170 1,200 -677 Descending Chicago Center
Wed 08:27:17 AM 41.9650 -87.9144 90° East 138 159 800 -387 Descending Chicago Center

Login

Don't have an account? Register now (free) for customized features, flight alerts, and more!